createdAt,value
2022-09-04T00:03:14.613Z,21.55
2022-09-04T00:06:07.361Z,20.20
2022-09-04T00:09:06.913Z,18.65
2022-09-04T00:12:10.133Z,19.10
2022-09-04T00:17:57.972Z,15.15
2022-09-04T00:20:49.901Z,17.13
2022-09-04T00:23:44.542Z,17.10
2022-09-04T00:26:45.006Z,16.55
2022-09-04T00:29:54.183Z,16.25
2022-09-04T00:32:51.285Z,17.40
2022-09-04T00:35:40.521Z,16.08
2022-09-04T00:38:35.531Z,19.48
2022-09-04T00:41:30.781Z,20.17
2022-09-04T00:44:57.826Z,19.67
2022-09-04T00:47:50.920Z,20.48
2022-09-04T00:51:01.725Z,19.10
2022-09-04T00:53:49.969Z,18.75
2022-09-04T00:57:13.833Z,19.15
2022-09-04T01:00:18.203Z,24.10
2022-09-04T01:03:15.507Z,21.48
2022-09-04T01:06:04.349Z,19.27
2022-09-04T01:09:21.816Z,21.85
2022-09-04T01:12:22.184Z,23.30
2022-09-04T01:15:25.432Z,22.17
2022-09-04T01:19:02.568Z,21.40
2022-09-04T01:22:12.970Z,24.27
2022-09-04T01:25:29.138Z,25.10
2022-09-04T01:28:27.540Z,21.73
2022-09-04T01:31:25.228Z,22.83
2022-09-04T01:34:33.888Z,20.88
2022-09-04T01:37:49.747Z,24.73
2022-09-04T01:40:53.169Z,19.05
2022-09-04T01:43:39.502Z,20.38
2022-09-04T01:46:58.107Z,23.25
2022-09-04T01:49:53.339Z,26.10
2022-09-04T01:53:00.820Z,19.15
2022-09-04T01:56:03.851Z,20.08
2022-09-04T01:58:58.408Z,21.05
2022-09-04T02:01:52.983Z,20.83
2022-09-04T02:04:45.257Z,21.92
2022-09-04T02:07:55.943Z,21.52
2022-09-04T02:11:28.180Z,19.20
2022-09-04T02:14:13.858Z,20.55
2022-09-04T02:17:09.089Z,20.65
2022-09-04T02:20:03.665Z,18.88
2022-09-04T02:23:11.255Z,21.65
2022-09-04T02:26:22.468Z,19.35
2022-09-04T02:29:28.475Z,20.25
2022-09-04T02:32:29.334Z,20.13
2022-09-04T02:35:34.898Z,20.48
2022-09-04T02:38:51.602Z,19.35
2022-09-04T02:41:50.380Z,20.92
2022-09-04T02:45:04.665Z,18.08
2022-09-04T02:48:29.377Z,21.60
2022-09-04T02:51:52.419Z,22.50
2022-09-04T02:55:00.221Z,19.98
2022-09-04T02:58:11.685Z,20.33
2022-09-04T03:01:21.776Z,20.73
2022-09-04T03:04:22.241Z,20.70
2022-09-04T03:07:23.950Z,22.05
2022-09-04T03:10:18.498Z,21.90
2022-09-04T03:13:09.875Z,18.17
2022-09-04T03:16:12.465Z,21.50
2022-09-04T03:19:38.882Z,20.30
2022-09-04T03:22:30.379Z,18.58
2022-09-04T03:25:40.497Z,19.10
2022-09-04T03:28:31.142Z,20.83
2022-09-04T03:31:34.874Z,20.63
2022-09-04T03:34:26.130Z,18.63
2022-09-04T03:37:22.536Z,20.75
2022-09-04T03:40:10.300Z,19.45
2022-09-04T03:43:20.508Z,20.02
2022-09-04T03:46:17.585Z,16.77
2022-09-04T03:49:08.807Z,19.05
2022-09-04T03:52:52.483Z,16.90
2022-09-04T03:55:56.641Z,19.17
2022-09-04T03:59:02.647Z,17.80
2022-09-04T04:01:53.460Z,17.70
2022-09-04T04:04:52.079Z,18.25
2022-09-04T04:07:51.175Z,18.58
2022-09-04T04:11:15.644Z,19.50
2022-09-04T04:14:06.896Z,20.90
2022-09-04T04:16:55.906Z,19.70
2022-09-04T04:20:04.928Z,19.50
2022-09-04T04:23:04.706Z,17.88
2022-09-04T04:26:08.160Z,15.65
2022-09-04T04:29:25.328Z,16.90
2022-09-04T04:32:33.211Z,16.88
2022-09-04T04:35:28.005Z,16.08
2022-09-04T04:38:47.336Z,16.05
2022-09-04T04:42:05.117Z,15.55
2022-09-04T04:45:45.035Z,16.95
2022-09-04T04:49:04.693Z,13.38
2022-09-04T04:52:07.984Z,17.33
2022-09-04T04:55:11.472Z,14.57
2022-09-04T04:58:07.255Z,13.15
2022-09-04T05:00:55.819Z,16.05
2022-09-04T05:04:15.601Z,10.52
2022-09-04T05:07:19.071Z,13.30
2022-09-04T05:10:31.227Z,11.45
2022-09-04T05:13:16.186Z,12.90
2022-09-04T05:16:34.214Z,12.38
2022-09-04T05:19:43.395Z,11.93
2022-09-04T05:22:43.120Z,11.52
2022-09-04T05:25:50.582Z,10.00
2022-09-04T05:29:02.855Z,11.23
2022-09-04T05:31:53.249Z,11.48
2022-09-04T05:34:51.300Z,11.80
2022-09-04T05:38:06.787Z,10.15
2022-09-04T05:41:05.004Z,11.00
2022-09-04T05:44:08.845Z,10.75
2022-09-04T05:47:21.978Z,11.13
2022-09-04T05:50:31.810Z,11.75
2022-09-04T05:53:42.863Z,9.25
2022-09-04T05:56:28.070Z,8.90
2022-09-04T05:59:19.330Z,9.77
2022-09-04T06:02:26.330Z,9.57
2022-09-04T06:05:28.140Z,10.70
2022-09-04T06:08:38.278Z,9.43
2022-09-04T06:11:54.575Z,8.30
2022-09-04T06:14:55.532Z,11.13
2022-09-04T06:18:28.429Z,8.18
2022-09-04T06:21:31.869Z,8.75
2022-09-04T06:24:55.828Z,10.40
2022-09-04T06:27:50.048Z,9.73
2022-09-04T06:30:49.499Z,10.32
2022-09-04T06:34:00.385Z,9.10
2022-09-04T06:37:11.225Z,10.02
2022-09-04T06:39:59.480Z,10.43
2022-09-04T06:42:50.270Z,10.68
2022-09-04T06:46:04.130Z,8.93
2022-09-04T06:48:59.713Z,8.68
2022-09-04T06:51:59.684Z,10.77
2022-09-04T06:55:02.437Z,8.85
2022-09-04T07:00:55.165Z,11.07
2022-09-04T07:03:58.132Z,9.75
2022-09-04T07:06:43.254Z,7.80
2022-09-04T07:09:35.083Z,9.57
2022-09-04T07:12:37.995Z,11.25
2022-09-04T07:15:33.354Z,11.52
2022-09-04T07:18:48.054Z,8.77
2022-09-04T07:21:35.944Z,9.05
2022-09-04T07:24:39.338Z,11.30
2022-09-04T07:27:58.431Z,10.48
2022-09-04T07:31:08.510Z,10.35
2022-09-04T07:34:23.978Z,11.38
2022-09-04T07:37:08.991Z,10.48
2022-09-04T07:40:05.333Z,12.32
2022-09-04T07:43:12.739Z,11.52
2022-09-04T07:46:13.311Z,9.05
2022-09-04T07:49:26.602Z,10.27
2022-09-04T07:52:43.767Z,8.57
2022-09-04T07:55:40.609Z,12.55
2022-09-04T07:58:46.387Z,9.90
2022-09-04T08:01:40.336Z,10.38
2022-09-04T08:04:28.548Z,10.10
2022-09-04T08:08:03.220Z,8.30
2022-09-04T08:11:19.195Z,8.23
2022-09-04T08:14:07.627Z,7.50
2022-09-04T08:17:05.027Z,8.25
2022-09-04T08:20:12.188Z,8.43
2022-09-04T08:23:11.594Z,9.90
2022-09-04T08:26:14.086Z,9.13
2022-09-04T08:29:37.157Z,8.80
2022-09-04T08:32:47.186Z,9.63
2022-09-04T08:35:34.598Z,8.75
2022-09-04T08:38:25.915Z,8.85
2022-09-04T08:41:29.737Z,11.07
2022-09-04T08:44:36.639Z,10.25
2022-09-04T08:47:57.161Z,8.65
2022-09-04T08:50:51.104Z,10.75
2022-09-04T08:54:01.990Z,11.13
2022-09-04T08:56:47.857Z,10.32
2022-09-04T09:00:01.858Z,8.80
2022-09-04T09:02:56.134Z,11.82
2022-09-04T09:06:10.231Z,10.13
2022-09-04T09:09:14.408Z,9.52
2022-09-04T09:12:40.746Z,8.90
2022-09-04T09:15:45.243Z,8.25
2022-09-04T09:18:48.808Z,8.63
2022-09-04T09:21:48.789Z,10.88
2022-09-04T09:24:45.907Z,8.13
2022-09-04T09:27:58.751Z,6.82
2022-09-04T09:31:29.118Z,6.60
2022-09-04T09:34:44.524Z,6.10
2022-09-04T09:38:13.696Z,7.63
2022-09-04T09:41:52.842Z,6.93
2022-09-04T09:45:09.586Z,10.43
2022-09-04T09:48:13.420Z,9.70
2022-09-04T09:51:17.233Z,9.02
2022-09-04T09:54:16.148Z,8.18
2022-09-04T09:57:21.870Z,8.02
2022-09-04T10:00:22.293Z,7.88
2022-09-04T10:03:28.960Z,7.68
2022-09-04T10:06:38.975Z,10.20
2022-09-04T10:09:34.410Z,7.55
2022-09-04T10:12:46.139Z,8.38
2022-09-04T10:15:55.939Z,8.88
2022-09-04T10:18:56.574Z,7.40
2022-09-04T10:22:00.258Z,8.90
2022-09-04T10:25:23.585Z,8.32
2022-09-04T10:28:40.239Z,10.60
2022-09-04T10:31:57.784Z,9.15
2022-09-04T10:34:54.957Z,8.32
2022-09-04T10:38:13.920Z,8.95
2022-09-04T10:41:34.826Z,10.85
2022-09-04T10:44:42.486Z,12.63
2022-09-04T10:47:52.071Z,10.57
2022-09-04T10:51:07.699Z,10.38
2022-09-04T10:54:08.159Z,10.38
2022-09-04T10:57:09.249Z,11.80
2022-09-04T11:00:00.252Z,10.95
2022-09-04T11:03:15.874Z,11.55
2022-09-04T11:06:25.627Z,10.52
2022-09-04T11:09:19.614Z,9.75
2022-09-04T11:12:47.396Z,12.13
2022-09-04T11:15:47.041Z,9.70
2022-09-04T11:19:10.220Z,9.35
2022-09-04T11:22:36.592Z,10.00
2022-09-04T11:28:35.600Z,10.60
2022-09-04T11:31:53.239Z,9.18
2022-09-04T11:34:56.935Z,9.48
2022-09-04T11:38:13.516Z,10.48
2022-09-04T11:41:15.403Z,11.27
2022-09-04T11:44:27.885Z,11.07
2022-09-04T11:47:34.829Z,8.15
2022-09-04T11:50:37.650Z,7.47
2022-09-04T11:53:51.948Z,7.72
2022-09-04T11:57:12.938Z,8.57
2022-09-04T12:00:13.580Z,10.50
2022-09-04T12:03:13.942Z,9.45
2022-09-04T12:06:11.774Z,11.57
2022-09-04T12:09:28.044Z,8.45
2022-09-04T12:12:21.966Z,8.45
2022-09-04T12:15:40.650Z,9.48
2022-09-04T12:18:32.975Z,8.57
2022-09-04T12:21:24.882Z,8.93
2022-09-04T12:24:14.902Z,8.32
2022-09-04T12:27:24.841Z,7.38
2022-09-04T12:30:23.171Z,9.10
2022-09-04T12:33:27.864Z,9.70
2022-09-04T12:36:32.996Z,8.52
2022-09-04T12:40:08.684Z,7.20
2022-09-04T12:43:00.193Z,10.32
2022-09-04T12:45:58.439Z,8.48
2022-09-04T12:49:31.361Z,10.07
2022-09-04T12:52:38.902Z,9.80
2022-09-04T12:55:42.008Z,8.02
2022-09-04T12:58:59.148Z,7.50
2022-09-04T13:02:16.262Z,7.18
2022-09-04T13:05:14.083Z,9.68
2022-09-04T13:08:25.822Z,9.23
2022-09-04T13:11:33.175Z,8.50
2022-09-04T13:14:27.047Z,7.75
2022-09-04T13:17:42.862Z,9.45
2022-09-04T13:20:41.018Z,8.90
2022-09-04T13:23:37.179Z,9.32
2022-09-04T13:26:59.086Z,9.25
2022-09-04T13:30:20.237Z,8.73
2022-09-04T13:33:11.662Z,8.90
2022-09-04T13:36:18.623Z,7.47
2022-09-04T13:39:06.805Z,7.82
2022-09-04T13:42:19.418Z,7.72
2022-09-04T13:45:26.421Z,8.73
2022-09-04T13:48:18.100Z,7.38
2022-09-04T13:51:13.499Z,7.50
2022-09-04T13:57:15.115Z,7.38
2022-09-04T14:00:06.979Z,9.10
2022-09-04T14:03:00.268Z,7.20
2022-09-04T14:05:45.641Z,7.70
2022-09-04T14:08:34.288Z,7.53
2022-09-04T14:11:34.054Z,7.28
2022-09-04T14:14:32.763Z,7.18
2022-09-04T14:17:26.494Z,9.07
2022-09-04T14:20:22.620Z,7.38
2022-09-04T14:23:27.383Z,8.85
2022-09-04T14:26:18.888Z,7.40
2022-09-04T14:29:32.602Z,8.35
2022-09-04T14:32:34.548Z,8.75
2022-09-04T14:35:35.297Z,8.93
2022-09-04T14:38:29.751Z,8.05
2022-09-04T14:41:20.725Z,8.75
2022-09-04T14:44:53.808Z,7.35
2022-09-04T14:48:05.012Z,8.48
2022-09-04T14:50:53.129Z,8.65
2022-09-04T14:53:46.950Z,11.30
2022-09-04T14:56:44.590Z,7.68
2022-09-04T14:59:38.857Z,11.20
2022-09-04T15:02:48.997Z,8.75
2022-09-04T15:05:48.320Z,10.05
2022-09-04T15:08:40.845Z,10.30
2022-09-04T15:11:34.180Z,11.10
2022-09-04T15:14:32.400Z,10.55
2022-09-04T15:17:27.639Z,8.20
2022-09-04T15:20:22.148Z,10.48
2022-09-04T15:23:32.529Z,7.35
2022-09-04T15:26:25.524Z,9.77
2022-09-04T15:29:33.056Z,8.75
2022-09-04T15:32:25.622Z,10.40
2022-09-04T15:35:22.375Z,7.65
2022-09-04T15:38:20.462Z,9.20
2022-09-04T15:41:26.032Z,9.45
2022-09-04T15:44:33.662Z,9.55
2022-09-04T15:47:41.818Z,7.28
2022-09-04T15:50:32.045Z,8.32
2022-09-04T15:53:49.189Z,9.45
2022-09-04T15:56:53.194Z,11.90
2022-09-04T15:59:48.983Z,7.03
2022-09-04T16:02:53.917Z,7.30
2022-09-04T16:05:56.844Z,7.15
2022-09-04T16:08:54.407Z,6.00
2022-09-04T16:11:48.448Z,8.57
2022-09-04T16:14:48.183Z,7.88
2022-09-04T16:17:42.422Z,7.40
2022-09-04T16:20:52.299Z,9.13
2022-09-04T16:23:40.101Z,7.65
2022-09-04T16:26:32.774Z,8.48
2022-09-04T16:29:24.520Z,8.25
2022-09-04T16:32:19.654Z,7.95
2022-09-04T16:35:18.938Z,8.18
2022-09-04T16:38:25.648Z,10.88
2022-09-04T16:41:13.545Z,10.57
2022-09-04T16:44:14.279Z,9.50
2022-09-04T16:47:04.235Z,10.80
2022-09-04T16:49:58.940Z,9.98
2022-09-04T16:53:22.768Z,8.80
2022-09-04T16:56:40.201Z,8.30
2022-09-04T16:59:25.421Z,11.43
2022-09-04T17:02:23.172Z,10.60
2022-09-04T17:05:39.440Z,8.32
2022-09-04T17:08:42.807Z,10.00
2022-09-04T17:14:39.685Z,11.00
2022-09-04T17:17:31.430Z,12.10
2022-09-04T17:21:18.429Z,10.30
2022-09-04T17:28:57.159Z,10.63
2022-09-04T17:29:16.209Z,7.50
2022-09-04T17:30:28.898Z,9.20
2022-09-04T17:40:34.605Z,8.85
2022-09-04T17:40:47.149Z,8.48
2022-09-04T17:40:50.971Z,8.20
2022-09-04T17:43:41.352Z,8.63
2022-09-04T17:46:57.870Z,10.07
2022-09-04T17:49:47.658Z,9.18
2022-09-04T17:52:59.495Z,8.68
2022-09-04T17:55:47.289Z,9.45
2022-09-04T17:58:39.951Z,9.82
2022-09-04T18:01:33.122Z,9.73
2022-09-04T18:04:34.339Z,11.13
2022-09-04T18:08:10.051Z,9.95
2022-09-04T18:10:48.987Z,8.77
2022-09-04T18:13:51.556Z,11.43
2022-09-04T18:16:38.968Z,12.90
2022-09-04T18:22:59.375Z,9.85
2022-09-04T18:25:51.690Z,9.10
2022-09-04T18:28:47.311Z,10.98
2022-09-04T18:37:25.492Z,12.20
2022-09-04T18:37:27.099Z,10.43
2022-09-04T18:38:20.090Z,9.23
2022-09-04T18:49:00.336Z,9.57
2022-09-04T18:50:33.815Z,10.15
2022-09-04T18:50:34.794Z,12.45
2022-09-04T18:51:20.100Z,11.88
2022-09-04T18:54:11.723Z,12.27
2022-09-04T18:57:06.496Z,13.80
2022-09-04T19:00:09.513Z,9.93
2022-09-04T19:03:09.889Z,13.30
2022-09-04T19:06:04.726Z,17.98
2022-09-04T19:08:55.715Z,13.88
2022-09-04T19:12:07.644Z,13.77
2022-09-04T19:14:55.265Z,14.80
2022-09-04T19:17:42.033Z,15.30
2022-09-04T19:20:36.326Z,15.65
2022-09-04T19:23:53.052Z,15.23
2022-09-04T19:26:53.726Z,18.00
2022-09-04T19:30:18.857Z,14.85
2022-09-04T19:33:16.172Z,14.90
2022-09-04T19:36:08.827Z,16.20
2022-09-04T19:46:08.069Z,17.00
2022-09-04T19:46:16.093Z,15.55
2022-09-04T19:46:28.205Z,16.95
2022-09-04T19:52:30.384Z,18.10
2022-09-04T19:53:33.499Z,15.25
2022-09-04T19:55:45.932Z,16.98
2022-09-04T19:58:39.554Z,15.27
2022-09-04T20:01:49.912Z,18.83
2022-09-04T20:04:46.464Z,18.30
2022-09-04T20:07:46.801Z,19.25
2022-09-04T20:10:37.798Z,17.70
2022-09-04T20:13:48.219Z,17.25
2022-09-04T20:16:47.706Z,16.60
2022-09-04T20:19:40.856Z,17.30
2022-09-04T20:22:25.875Z,17.77
2022-09-04T20:25:16.739Z,21.60
2022-09-04T20:28:45.350Z,19.20
2022-09-04T20:31:44.682Z,19.80
2022-09-04T20:34:39.953Z,19.77
2022-09-04T20:37:31.285Z,24.45
2022-09-04T20:40:34.691Z,23.23
2022-09-04T20:52:42.317Z,18.58
2022-09-04T20:52:52.601Z,24.15
2022-09-04T20:53:06.168Z,23.60
2022-09-04T20:55:58.676Z,25.80
2022-09-04T21:03:14.434Z,27.40
2022-09-04T21:09:02.409Z,22.85
2022-09-04T21:12:05.265Z,26.80
2022-09-04T21:14:57.953Z,26.88
2022-09-04T21:18:18.881Z,25.52
2022-09-04T21:21:23.971Z,25.58
2022-09-04T21:24:41.440Z,21.70
2022-09-04T21:27:52.275Z,27.98
2022-09-04T21:30:52.716Z,25.60
2022-09-04T21:33:49.598Z,27.63
2022-09-04T21:36:59.111Z,29.27
2022-09-04T21:40:50.796Z,33.90
2022-09-04T21:44:11.369Z,27.67
2022-09-04T21:47:08.388Z,30.98
2022-09-04T21:50:09.232Z,30.52
2022-09-04T21:53:19.463Z,31.85
2022-09-04T22:01:14.050Z,31.45
2022-09-04T22:02:35.357Z,31.83
2022-09-04T22:03:21.223Z,31.55
2022-09-04T22:07:36.267Z,32.92
2022-09-04T22:13:32.584Z,38.65
2022-09-04T22:13:39.072Z,39.28
2022-09-04T22:16:36.074Z,40.92
2022-09-04T22:19:45.773Z,34.55
2022-09-04T22:22:55.263Z,34.50
2022-09-04T22:25:47.622Z,30.63
2022-09-04T22:28:35.766Z,36.60
2022-09-04T22:31:21.833Z,36.00
2022-09-04T22:34:39.150Z,35.50
2022-09-04T22:37:29.903Z,40.78
2022-09-04T22:40:32.224Z,38.28
2022-09-04T22:43:25.435Z,37.47
2022-09-04T22:46:49.810Z,37.13
2022-09-04T22:50:16.464Z,33.35
2022-09-04T22:53:27.261Z,31.67
2022-09-04T22:56:24.421Z,33.75
2022-09-04T22:59:33.539Z,32.63
2022-09-04T23:09:07.367Z,31.35
2022-09-04T23:13:51.608Z,35.20
2022-09-04T23:13:58.766Z,34.30
2022-09-04T23:16:28.662Z,37.03
2022-09-04T23:23:07.697Z,38.17
2022-09-04T23:26:38.230Z,31.90
2022-09-04T23:26:53.270Z,33.30
2022-09-04T23:29:34.666Z,34.03
2022-09-04T23:32:26.448Z,36.45
2022-09-04T23:35:15.778Z,29.35
2022-09-04T23:38:38.951Z,33.15
2022-09-04T23:41:33.160Z,32.17
2022-09-04T23:44:49.349Z,32.33
2022-09-04T23:47:53.590Z,32.80
2022-09-04T23:50:46.518Z,32.33
2022-09-04T23:53:44.146Z,34.50
2022-09-04T23:56:42.953Z,33.17
2022-09-04T23:59:55.733Z,27.45
